sensor_id;sensor_type;location;lat;lon;timestamp;P1;durP1;ratioP1;P2;durP2;ratioP2
26780;SDS011;14366;49.184;8.054;2024-02-15T00:01:33;6.90;;;3.30;;
26780;SDS011;14366;49.184;8.054;2024-02-15T00:07:09;7.07;;;3.70;;
26780;SDS011;14366;49.184;8.054;2024-02-15T00:12:31;4.10;;;2.53;;
26780;SDS011;14366;49.184;8.054;2024-02-15T00:18:05;4.57;;;2.57;;
26780;SDS011;14366;49.184;8.054;2024-02-15T00:23:25;3.05;;;2.50;;
26780;SDS011;14366;49.184;8.054;2024-02-15T00:28:47;4.45;;;3.20;;
26780;SDS011;14366;49.184;8.054;2024-02-15T00:34:22;5.47;;;3.13;;
26780;SDS011;14366;49.184;8.054;2024-02-15T00:39:57;4.30;;;3.20;;
26780;SDS011;14366;49.184;8.054;2024-02-15T00:45:19;5.07;;;3.13;;
26780;SDS011;14366;49.184;8.054;2024-02-15T00:50:54;3.75;;;2.85;;
26780;SDS011;14366;49.184;8.054;2024-02-15T00:56:14;4.07;;;2.92;;
26780;SDS011;14366;49.184;8.054;2024-02-15T01:01:35;6.57;;;3.23;;
26780;SDS011;14366;49.184;8.054;2024-02-15T01:07:11;3.33;;;2.80;;
26780;SDS011;14366;49.184;8.054;2024-02-15T01:12:31;5.65;;;3.15;;
26780;SDS011;14366;49.184;8.054;2024-02-15T01:18:07;4.27;;;2.83;;
26780;SDS011;14366;49.184;8.054;2024-02-15T01:28:47;4.40;;;3.30;;
26780;SDS011;14366;49.184;8.054;2024-02-15T01:39:11;4.20;;;3.45;;
26780;SDS011;14366;49.184;8.054;2024-02-15T01:44:45;5.65;;;3.40;;
26780;SDS011;14366;49.184;8.054;2024-02-15T01:50:21;5.50;;;3.37;;
26780;SDS011;14366;49.184;8.054;2024-02-15T01:55:58;3.80;;;3.10;;
26780;SDS011;14366;49.184;8.054;2024-02-15T02:01:32;4.80;;;3.45;;
26780;SDS011;14366;49.184;8.054;2024-02-15T02:12:14;5.60;;;3.10;;
26780;SDS011;14366;49.184;8.054;2024-02-15T02:17:49;4.75;;;3.05;;
26780;SDS011;14366;49.184;8.054;2024-02-15T02:23:13;6.30;;;3.55;;
26780;SDS011;14366;49.184;8.054;2024-02-15T02:28:48;5.83;;;3.40;;
26780;SDS011;14366;49.184;8.054;2024-02-15T02:34:23;3.67;;;3.33;;
26780;SDS011;14366;49.184;8.054;2024-02-15T02:39:58;3.50;;;3.00;;
26780;SDS011;14366;49.184;8.054;2024-02-15T02:45:35;4.50;;;3.37;;
26780;SDS011;14366;49.184;8.054;2024-02-15T02:51:09;4.50;;;3.40;;
26780;SDS011;14366;49.184;8.054;2024-02-15T02:56:29;7.55;;;3.10;;
26780;SDS011;14366;49.184;8.054;2024-02-15T03:08:10;6.60;;;2.90;;
26780;SDS011;14366;49.184;8.054;2024-02-15T03:13:45;4.30;;;2.80;;
26780;SDS011;14366;49.184;8.054;2024-02-15T03:19:21;3.43;;;2.47;;
26780;SDS011;14366;49.184;8.054;2024-02-15T03:24:45;6.25;;;2.40;;
26780;SDS011;14366;49.184;8.054;2024-02-15T03:30:16;4.85;;;3.00;;
26780;SDS011;14366;49.184;8.054;2024-02-15T03:35:52;3.20;;;2.45;;
26780;SDS011;14366;49.184;8.054;2024-02-15T03:41:30;4.57;;;2.60;;
26780;SDS011;14366;49.184;8.054;2024-02-15T03:47:05;4.40;;;2.90;;
26780;SDS011;14366;49.184;8.054;2024-02-15T03:52:41;6.00;;;3.20;;
26780;SDS011;14366;49.184;8.054;2024-02-15T03:58:19;5.30;;;2.75;;
26780;SDS011;14366;49.184;8.054;2024-02-15T04:03:51;5.20;;;2.90;;
26780;SDS011;14366;49.184;8.054;2024-02-15T04:09:12;6.20;;;2.97;;
26780;SDS011;14366;49.184;8.054;2024-02-15T04:14:34;4.20;;;2.97;;
26780;SDS011;14366;49.184;8.054;2024-02-15T04:20:09;5.70;;;2.90;;
26780;SDS011;14366;49.184;8.054;2024-02-15T04:25:45;6.15;;;2.90;;
26780;SDS011;14366;49.184;8.054;2024-02-15T04:31:19;5.83;;;3.37;;
26780;SDS011;14366;49.184;8.054;2024-02-15T04:36:54;5.70;;;3.05;;
26780;SDS011;14366;49.184;8.054;2024-02-15T04:42:14;6.50;;;2.90;;
26780;SDS011;14366;49.184;8.054;2024-02-15T04:47:51;4.97;;;2.87;;
26780;SDS011;14366;49.184;8.054;2024-02-15T04:53:31;7.60;;;3.20;;
26780;SDS011;14366;49.184;8.054;2024-02-15T04:58:52;5.35;;;3.00;;
26780;SDS011;14366;49.184;8.054;2024-02-15T05:04:30;7.93;;;3.37;;
26780;SDS011;14366;49.184;8.054;2024-02-15T05:10:06;9.25;;;3.70;;
26780;SDS011;14366;49.184;8.054;2024-02-15T05:15:41;5.73;;;3.70;;
26780;SDS011;14366;49.184;8.054;2024-02-15T05:21:02;7.40;;;3.80;;
26780;SDS011;14366;49.184;8.054;2024-02-15T05:26:39;5.65;;;4.10;;
26780;SDS011;14366;49.184;8.054;2024-02-15T05:32:14;8.15;;;4.40;;
26780;SDS011;14366;49.184;8.054;2024-02-15T05:43:52;8.90;;;5.20;;
26780;SDS011;14366;49.184;8.054;2024-02-15T05:54:33;7.30;;;5.30;;
26780;SDS011;14366;49.184;8.054;2024-02-15T06:05:14;7.40;;;5.80;;
26780;SDS011;14366;49.184;8.054;2024-02-15T06:15:52;7.70;;;6.10;;
26780;SDS011;14366;49.184;8.054;2024-02-15T06:26:32;8.37;;;5.33;;
26780;SDS011;14366;49.184;8.054;2024-02-15T06:32:05;10.05;;;6.05;;
26780;SDS011;14366;49.184;8.054;2024-02-15T06:37:36;7.07;;;4.90;;
26780;SDS011;14366;49.184;8.054;2024-02-15T06:43:17;6.63;;;5.30;;
26780;SDS011;14366;49.184;8.054;2024-02-15T06:48:53;9.15;;;5.70;;
26780;SDS011;14366;49.184;8.054;2024-02-15T06:54:28;9.30;;;5.80;;
26780;SDS011;14366;49.184;8.054;2024-02-15T07:00:06;11.30;;;6.90;;
26780;SDS011;14366;49.184;8.054;2024-02-15T07:05:41;11.05;;;6.05;;
26780;SDS011;14366;49.184;8.054;2024-02-15T07:11:02;8.60;;;6.30;;
26780;SDS011;14366;49.184;8.054;2024-02-15T07:16:39;11.20;;;6.10;;
26780;SDS011;14366;49.184;8.054;2024-02-15T07:22:15;7.47;;;5.40;;
26780;SDS011;14366;49.184;8.054;2024-02-15T07:27:51;6.10;;;5.10;;
26780;SDS011;14366;49.184;8.054;2024-02-15T07:33:25;9.85;;;5.25;;
26780;SDS011;14366;49.184;8.054;2024-02-15T07:38:59;9.57;;;6.00;;
26780;SDS011;14366;49.184;8.054;2024-02-15T07:44:20;6.70;;;4.25;;
26780;SDS011;14366;49.184;8.054;2024-02-15T07:49:57;10.47;;;5.57;;
26780;SDS011;14366;49.184;8.054;2024-02-15T07:55:30;7.10;;;5.30;;
26780;SDS011;14366;49.184;8.054;2024-02-15T08:00:50;6.97;;;4.70;;
26780;SDS011;14366;49.184;8.054;2024-02-15T08:06:12;8.15;;;4.40;;
26780;SDS011;14366;49.184;8.054;2024-02-15T08:11:46;6.10;;;4.00;;
26780;SDS011;14366;49.184;8.054;2024-02-15T08:17:16;6.80;;;3.77;;
26780;SDS011;14366;49.184;8.054;2024-02-15T08:22:50;6.87;;;3.80;;
26780;SDS011;14366;49.184;8.054;2024-02-15T08:28:24;4.30;;;2.90;;
26780;SDS011;14366;49.184;8.054;2024-02-15T08:33:44;6.10;;;2.90;;
26780;SDS011;14366;49.184;8.054;2024-02-15T08:39:06;6.77;;;2.67;;
26780;SDS011;14366;49.184;8.054;2024-02-15T08:44:40;3.70;;;2.90;;
26780;SDS011;14366;49.184;8.054;2024-02-15T08:50:15;5.10;;;2.50;;
26780;SDS011;14366;49.184;8.054;2024-02-15T08:55:52;4.10;;;2.35;;
26780;SDS011;14366;49.184;8.054;2024-02-15T09:01:26;3.77;;;2.40;;
26780;SDS011;14366;49.184;8.054;2024-02-15T09:06:46;2.80;;;2.50;;
26780;SDS011;14366;49.184;8.054;2024-02-15T09:17:26;4.33;;;2.67;;
26780;SDS011;14366;49.184;8.054;2024-02-15T09:22:58;3.45;;;2.00;;
26780;SDS011;14366;49.184;8.054;2024-02-15T09:28:33;4.40;;;2.10;;
26780;SDS011;14366;49.184;8.054;2024-02-15T09:33:55;2.73;;;1.70;;
26780;SDS011;14366;49.184;8.054;2024-02-15T09:39:27;3.57;;;2.40;;
26780;SDS011;14366;49.184;8.054;2024-02-15T09:44:48;3.80;;;2.50;;
26780;SDS011;14366;49.184;8.054;2024-02-15T09:50:25;5.20;;;3.20;;
26780;SDS011;14366;49.184;8.054;2024-02-15T09:56:00;3.90;;;2.50;;
26780;SDS011;14366;49.184;8.054;2024-02-15T10:01:35;4.30;;;2.10;;
26780;SDS011;14366;49.184;8.054;2024-02-15T10:07:13;5.85;;;2.20;;
26780;SDS011;14366;49.184;8.054;2024-02-15T10:12:45;5.25;;;2.30;;
26780;SDS011;14366;49.184;8.054;2024-02-15T10:18:19;2.20;;;1.90;;
26780;SDS011;14366;49.184;8.054;2024-02-15T10:29:09;4.30;;;2.10;;
26780;SDS011;14366;49.184;8.054;2024-02-15T10:34:43;4.57;;;2.13;;
26780;SDS011;14366;49.184;8.054;2024-02-15T10:40:18;4.80;;;1.80;;
26780;SDS011;14366;49.184;8.054;2024-02-15T10:45:51;3.20;;;1.70;;
26780;SDS011;14366;49.184;8.054;2024-02-15T10:56:28;2.10;;;1.60;;
26780;SDS011;14366;49.184;8.054;2024-02-15T11:02:01;2.63;;;1.70;;
26780;SDS011;14366;49.184;8.054;2024-02-15T11:07:36;3.50;;;1.80;;
26780;SDS011;14366;49.184;8.054;2024-02-15T11:13:11;3.47;;;1.57;;
26780;SDS011;14366;49.184;8.054;2024-02-15T11:18:48;5.60;;;2.30;;
26780;SDS011;14366;49.184;8.054;2024-02-15T11:24:25;5.67;;;1.70;;
26780;SDS011;14366;49.184;8.054;2024-02-15T11:35:04;7.77;;;5.20;;
26780;SDS011;14366;49.184;8.054;2024-02-15T11:46:45;5.13;;;2.20;;
26780;SDS011;14366;49.184;8.054;2024-02-15T11:52:21;2.24;;;1.74;;
26780;SDS011;14366;49.184;8.054;2024-02-15T11:57:56;2.90;;;1.93;;
26780;SDS011;14366;49.184;8.054;2024-02-15T12:03:37;2.80;;;1.80;;
26780;SDS011;14366;49.184;8.054;2024-02-15T12:14:11;3.63;;;1.83;;
26780;SDS011;14366;49.184;8.054;2024-02-15T12:24:52;4.27;;;1.83;;
26780;SDS011;14366;49.184;8.054;2024-02-15T12:30:33;2.70;;;1.80;;
26780;SDS011;14366;49.184;8.054;2024-02-15T12:36:09;3.70;;;1.90;;
26780;SDS011;14366;49.184;8.054;2024-02-15T12:41:29;4.13;;;1.90;;
26780;SDS011;14366;49.184;8.054;2024-02-15T12:47:05;5.50;;;1.90;;
26780;SDS011;14366;49.184;8.054;2024-02-15T12:52:40;2.40;;;1.60;;
26780;SDS011;14366;49.184;8.054;2024-02-15T13:03:06;3.83;;;1.67;;
26780;SDS011;14366;49.184;8.054;2024-02-15T13:08:40;3.37;;;1.90;;
26780;SDS011;14366;49.184;8.054;2024-02-15T13:14:12;3.77;;;2.00;;
26780;SDS011;14366;49.184;8.054;2024-02-15T13:19:49;7.47;;;3.17;;
26780;SDS011;14366;49.184;8.054;2024-02-15T13:25:25;5.90;;;2.57;;
26780;SDS011;14366;49.184;8.054;2024-02-15T13:31:01;3.00;;;1.90;;
26780;SDS011;14366;49.184;8.054;2024-02-15T13:36:23;2.97;;;2.00;;
26780;SDS011;14366;49.184;8.054;2024-02-15T13:41:59;5.45;;;2.05;;
26780;SDS011;14366;49.184;8.054;2024-02-15T13:47:34;6.97;;;4.87;;
26780;SDS011;14366;49.184;8.054;2024-02-15T13:53:10;3.85;;;2.00;;
26780;SDS011;14366;49.184;8.054;2024-02-15T13:58:45;5.23;;;3.33;;
26780;SDS011;14366;49.184;8.054;2024-02-15T14:04:21;5.40;;;2.50;;
26780;SDS011;14366;49.184;8.054;2024-02-15T14:09:57;4.30;;;3.10;;
26780;SDS011;14366;49.184;8.054;2024-02-15T14:20:37;4.50;;;2.50;;
26780;SDS011;14366;49.184;8.054;2024-02-15T14:26:14;13.40;;;7.40;;
26780;SDS011;14366;49.184;8.054;2024-02-15T14:31:52;4.20;;;2.15;;
26780;SDS011;14366;49.184;8.054;2024-02-15T14:37:32;3.33;;;1.90;;
26780;SDS011;14366;49.184;8.054;2024-02-15T14:42:53;3.93;;;2.00;;
26780;SDS011;14366;49.184;8.054;2024-02-15T14:48:28;6.20;;;2.50;;
26780;SDS011;14366;49.184;8.054;2024-02-15T14:59:07;4.07;;;2.10;;
26780;SDS011;14366;49.184;8.054;2024-02-15T15:04:41;6.00;;;2.30;;
26780;SDS011;14366;49.184;8.054;2024-02-15T15:15:27;3.63;;;1.83;;
26780;SDS011;14366;49.184;8.054;2024-02-15T15:21:03;4.40;;;3.20;;
26780;SDS011;14366;49.184;8.054;2024-02-15T15:26:38;7.43;;;2.80;;
26780;SDS011;14366;49.184;8.054;2024-02-15T15:32:00;4.27;;;2.07;;
26780;SDS011;14366;49.184;8.054;2024-02-15T15:37:34;6.20;;;1.80;;
26780;SDS011;14366;49.184;8.054;2024-02-15T15:42:51;2.70;;;1.70;;
26780;SDS011;14366;49.184;8.054;2024-02-15T15:48:28;2.27;;;1.70;;
26780;SDS011;14366;49.184;8.054;2024-02-15T15:59:04;6.80;;;1.70;;
26780;SDS011;14366;49.184;8.054;2024-02-15T16:04:43;6.75;;;2.15;;
26780;SDS011;14366;49.184;8.054;2024-02-15T16:10:19;5.30;;;2.10;;
26780;SDS011;14366;49.184;8.054;2024-02-15T16:15:54;4.70;;;1.80;;
26780;SDS011;14366;49.184;8.054;2024-02-15T16:21:31;6.20;;;2.65;;
26780;SDS011;14366;49.184;8.054;2024-02-15T16:27:06;7.50;;;2.15;;
26780;SDS011;14366;49.184;8.054;2024-02-15T16:32:26;2.37;;;1.70;;
26780;SDS011;14366;49.184;8.054;2024-02-15T16:38:01;4.97;;;2.23;;
26780;SDS011;14366;49.184;8.054;2024-02-15T16:43:36;4.90;;;1.90;;
26780;SDS011;14366;49.184;8.054;2024-02-15T16:49:11;5.80;;;2.05;;
26780;SDS011;14366;49.184;8.054;2024-02-15T16:54:34;4.47;;;1.95;;
26780;SDS011;14366;49.184;8.054;2024-02-15T17:00:06;5.90;;;2.23;;
26780;SDS011;14366;49.184;8.054;2024-02-15T17:05:41;4.97;;;2.60;;
26780;SDS011;14366;49.184;8.054;2024-02-15T17:11:03;3.85;;;2.05;;
26780;SDS011;14366;49.184;8.054;2024-02-15T17:16:39;4.87;;;2.57;;
26780;SDS011;14366;49.184;8.054;2024-02-15T17:27:16;5.90;;;2.60;;
26780;SDS011;14366;49.184;8.054;2024-02-15T17:37:56;5.64;;;2.70;;
26780;SDS011;14366;49.184;8.054;2024-02-15T17:43:33;7.73;;;3.00;;
26780;SDS011;14366;49.184;8.054;2024-02-15T17:54:13;5.37;;;3.00;;
26780;SDS011;14366;49.184;8.054;2024-02-15T18:04:53;8.47;;;3.70;;
26780;SDS011;14366;49.184;8.054;2024-02-15T18:15:33;5.27;;;2.77;;
26780;SDS011;14366;49.184;8.054;2024-02-15T18:20:51;5.87;;;2.73;;
26780;SDS011;14366;49.184;8.054;2024-02-15T18:31:29;6.90;;;3.50;;
26780;SDS011;14366;49.184;8.054;2024-02-15T18:42:06;7.67;;;3.87;;
26780;SDS011;14366;49.184;8.054;2024-02-15T18:52:42;4.60;;;3.00;;
26780;SDS011;14366;49.184;8.054;2024-02-15T19:03:38;4.60;;;3.40;;
26780;SDS011;14366;49.184;8.054;2024-02-15T19:09:14;7.05;;;3.10;;
26780;SDS011;14366;49.184;8.054;2024-02-15T19:19:40;5.96;;;2.68;;
26780;SDS011;14366;49.184;8.054;2024-02-15T19:25:15;6.60;;;3.40;;
26780;SDS011;14366;49.184;8.054;2024-02-15T19:30:38;6.07;;;3.13;;
26780;SDS011;14366;49.184;8.054;2024-02-15T19:36:00;7.20;;;3.20;;
26780;SDS011;14366;49.184;8.054;2024-02-15T19:41:36;3.80;;;2.80;;
26780;SDS011;14366;49.184;8.054;2024-02-15T19:47:12;5.00;;;3.00;;
26780;SDS011;14366;49.184;8.054;2024-02-15T19:52:49;6.37;;;2.60;;
26780;SDS011;14366;49.184;8.054;2024-02-15T19:58:24;6.73;;;3.43;;
26780;SDS011;14366;49.184;8.054;2024-02-15T20:03:44;4.80;;;3.57;;
26780;SDS011;14366;49.184;8.054;2024-02-15T20:09:21;5.50;;;2.90;;
26780;SDS011;14366;49.184;8.054;2024-02-15T20:14:56;6.60;;;3.00;;
26780;SDS011;14366;49.184;8.054;2024-02-15T20:20:31;5.47;;;3.00;;
26780;SDS011;14366;49.184;8.054;2024-02-15T20:26:07;9.20;;;3.17;;
26780;SDS011;14366;49.184;8.054;2024-02-15T20:31:39;6.07;;;3.07;;
26780;SDS011;14366;49.184;8.054;2024-02-15T20:37:15;5.53;;;3.07;;
26780;SDS011;14366;49.184;8.054;2024-02-15T20:42:51;6.30;;;3.20;;
26780;SDS011;14366;49.184;8.054;2024-02-15T20:48:27;5.73;;;3.33;;
26780;SDS011;14366;49.184;8.054;2024-02-15T20:54:02;8.20;;;3.30;;
26780;SDS011;14366;49.184;8.054;2024-02-15T20:59:40;5.00;;;2.50;;
26780;SDS011;14366;49.184;8.054;2024-02-15T21:05:12;6.80;;;2.53;;
26780;SDS011;14366;49.184;8.054;2024-02-15T21:10:48;4.50;;;2.30;;
26780;SDS011;14366;49.184;8.054;2024-02-15T21:16:09;4.50;;;2.60;;
26780;SDS011;14366;49.184;8.054;2024-02-15T21:21:44;3.57;;;2.60;;
26780;SDS011;14366;49.184;8.054;2024-02-15T21:27:04;4.23;;;2.60;;
26780;SDS011;14366;49.184;8.054;2024-02-15T21:32:41;5.10;;;3.10;;
26780;SDS011;14366;49.184;8.054;2024-02-15T21:38:17;4.10;;;2.75;;
26780;SDS011;14366;49.184;8.054;2024-02-15T21:43:52;4.27;;;2.80;;
26780;SDS011;14366;49.184;8.054;2024-02-15T21:49:29;3.50;;;2.40;;
26780;SDS011;14366;49.184;8.054;2024-02-15T21:55:05;3.83;;;2.20;;
26780;SDS011;14366;49.184;8.054;2024-02-15T22:00:41;3.30;;;2.20;;
26780;SDS011;14366;49.184;8.054;2024-02-15T22:06:18;3.80;;;2.30;;
26780;SDS011;14366;49.184;8.054;2024-02-15T22:11:53;12.95;;;7.85;;
26780;SDS011;14366;49.184;8.054;2024-02-15T22:17:29;2.70;;;2.00;;
26780;SDS011;14366;49.184;8.054;2024-02-15T22:23:07;3.90;;;2.65;;
26780;SDS011;14366;49.184;8.054;2024-02-15T22:28:41;6.40;;;3.70;;
26780;SDS011;14366;49.184;8.054;2024-02-15T22:34:17;6.60;;;3.80;;
26780;SDS011;14366;49.184;8.054;2024-02-15T22:39:54;7.60;;;3.70;;
26780;SDS011;14366;49.184;8.054;2024-02-15T22:45:28;3.83;;;2.60;;
26780;SDS011;14366;49.184;8.054;2024-02-15T22:50:50;4.10;;;2.45;;
26780;SDS011;14366;49.184;8.054;2024-02-15T22:56:17;6.05;;;3.65;;
26780;SDS011;14366;49.184;8.054;2024-02-15T23:01:51;7.15;;;3.40;;
26780;SDS011;14366;49.184;8.054;2024-02-15T23:07:26;5.23;;;3.77;;
26780;SDS011;14366;49.184;8.054;2024-02-15T23:12:48;6.70;;;3.53;;
26780;SDS011;14366;49.184;8.054;2024-02-15T23:18:24;6.20;;;2.75;;
26780;SDS011;14366;49.184;8.054;2024-02-15T23:23:58;6.27;;;2.60;;
26780;SDS011;14366;49.184;8.054;2024-02-15T23:29:20;4.67;;;2.37;;
26780;SDS011;14366;49.184;8.054;2024-02-15T23:34:54;3.47;;;2.40;;
26780;SDS011;14366;49.184;8.054;2024-02-15T23:45:35;3.65;;;2.65;;
26780;SDS011;14366;49.184;8.054;2024-02-15T23:56:15;4.10;;;2.20;;
